Blancagrande, Argentina
Current Conditions -  °F | °C
As of 8:00 PM on Monday 20 Oct 2014 (Local Time) from SAEZ Reporting Station
Clear Clear  
Wind Chill: 19°   Ceiling: Unl
Heat Index: 19°   Visibility: 6mi
Dew Point: 10°   Wind: 7mph
Humidity: 56%   Direction: 70°ENE
Pressure: 30.12"   Gusts: NA
Location:  36.54°S, 60.89°W
Report Text: SAEZ 202300Z 07006KT CAVOK 19/10 Q1020
Loading
Personal Weather Stations






























Interactive Weather Map
Tropical Storm Tracking
New forecast layout! Learn more

10-Day Weather Forecast

Advertisements
Track Severe Weather on mobile